66TA weather

Bradair Heliport
Pearland, Texas, United States

Public forecast

Using degrees Fahrenheit for public forecast. Weather courtesy of forecast.io.

METAR (pilot weather report)

Closest report is William P Hobby Airport, 3.3 nm (6.1 km) N. Retrieved 2019/07/23 17:15 UTC (0 seconds ago):

KHOU 231715Z 35012KT 10SM FEW021 BKN028 29/22 A3001 RMK AO2 T02890222

TAF (pilot weather forecast)

Closest forecast is William P Hobby Airport, 3.3 nm (6.1 km) N. Retrieved 2019/07/23 12:24 UTC (5 hours ago):

TAF KHOU 231121Z 2312/2412 27006KT P6SM SCT060 BKN100 BKN250 FM231500 35009KT P6SM VCTS SCT025CB BKN250 FM231800 01013KT P6SM SCT025 BKN035 FM240200 02006KT P6SM SCT250